Valdosta, GA

12:35 PM EDT on September 02, 2015 (GMT -0400)
Audio Video and Security Inc. | | Change Station
CLOSE
Current Station
Personal Weather Station
Location: Valdosta, GA
Elevation: 220 ft
Nearby Weather Stations

Elev 220 ft 30.81 °N, 83.32 °W | Updated 1 second ago

Overcast
Overcast
82.4 °F
Feels Like 87 °F
N
0.0
Wind Variable Wind from SSE
Gusts 2.2 mph

Today
High -- | Low -- °F
--% Chance of Precip.
Yesterday
High -- | Low -- °F
Precip. -- in
7:09 AM 7:55 PM
Waning Gibbous, 79% visible
Pressure 30.07 in
Visibility 10.0 miles
Clouds Scattered Clouds 1300 ft
Scattered Clouds 1900 ft
Overcast 3400 ft
Heat Index 87 °F
Dew Point 70 °F
Humidity 67%
Rainfall 0.32 in
Snow Depth Not available.
UV 4 out of 12
Pollen 8.00 out of 12
Air Quality Not available.
Flu Activity Not available.
SPECI KVLD 021611Z 00000KT 10SM SCT013 SCT019 OVC034 27/24 A3007 RMK AO2 T02670244
Pressure 30.07 in
Visibility 10.0 miles
Clouds Scattered Clouds 1300 ft
Scattered Clouds 1900 ft
Overcast 3400 ft
Heat Index 87 °F
Dew Point 70 °F
Humidity 67%
Rainfall 0.32 in
Snow Depth Not available.
UV 4 out of 12
Pollen 8.00 out of 12
Air Quality Not available.
Flu Activity Not available.
SPECI KVLD 021611Z 00000KT 10SM SCT013 SCT019 OVC034 27/24 A3007 RMK AO2 T02670244

10-Day Weather Forecast

×

Almanac

Astronomy

Sep. 02, 2015 Rise Set
Actual Time
Civil Twilight
Nautical Twilight
Astronomical Twilight
Moon
Length of Visible Light
Length of Day
Tomorrow will be .
, % of the Moon is Illuminated

Today's Extremes

State Highs State Lows

Community

WunderPhotos

Upload Photos

1,851,783 photos uploaded!

WunderBlogs® & News

Nearby

Air Quality

  Air Quality AQ Index Pollutant
Not available.

Snow Depth

Station Depth Elevation

Earthquake Activity

City Distance Mag. Time & Date
Minimum magnitude displayed is 2.5.

Coastal Water Temperatures

Place Temperature

Stations

Nearby Weather Stations

Station Location Temp. Windchill Dew Point Humidity Wind Precip. Elev Updated Type